createdAt,value
2019-04-04T00:00:27.613Z,100095.64
2019-04-04T00:02:54.831Z,100095.48
2019-04-04T00:05:22.139Z,100102.20
2019-04-04T00:07:49.379Z,100115.60
2019-04-04T00:10:16.645Z,100127.63
2019-04-04T00:12:43.957Z,100128.64
2019-04-04T00:15:11.247Z,100131.83
2019-04-04T00:17:40.167Z,100135.42
2019-04-04T00:20:07.603Z,100141.61
2019-04-04T00:22:35.496Z,100120.27
2019-04-04T00:25:03.338Z,100120.27
2019-04-04T00:27:30.539Z,100107.88
2019-04-04T00:29:57.802Z,100093.75
2019-04-04T00:32:25.043Z,100094.83
2019-04-04T00:34:52.274Z,100089.81
2019-04-04T00:37:19.533Z,100092.44
2019-04-04T00:39:46.715Z,100092.44
2019-04-04T00:42:15.033Z,100084.28
2019-04-04T00:44:43.076Z,100080.41
2019-04-04T00:47:10.346Z,100073.73
2019-04-04T00:49:37.673Z,100058.78
2019-04-04T00:52:04.920Z,100049.84
2019-04-04T00:54:32.154Z,100050.08
2019-04-04T00:56:59.356Z,100042.55
2019-04-04T00:59:26.617Z,100024.80
2019-04-04T01:01:55.075Z,100011.52
2019-04-04T01:04:22.931Z,99996.65
2019-04-04T01:06:50.206Z,99991.61
2019-04-04T01:09:17.414Z,99999.07
2019-04-04T01:11:44.654Z,100019.63
2019-04-04T01:14:11.909Z,100019.63
2019-04-04T01:16:39.137Z,100040.02
2019-04-04T01:19:09.678Z,100043.81
2019-04-04T01:21:35.532Z,100021.25
2019-04-04T01:24:02.880Z,100018.17
2019-04-04T01:26:30.131Z,100030.50
2019-04-04T01:28:57.364Z,100030.50
2019-04-04T01:31:24.592Z,100027.21
2019-04-04T01:33:52.059Z,100021.87
2019-04-04T01:36:19.316Z,100021.87
2019-04-04T01:38:46.548Z,100045.33
2019-04-04T01:41:13.818Z,100043.64
2019-04-04T01:43:41.072Z,100021.22
2019-04-04T01:46:08.316Z,100011.62
2019-04-04T01:48:35.598Z,100007.75
2019-04-04T01:51:02.826Z,99991.00
2019-04-04T01:53:30.793Z,99991.61
2019-04-04T01:55:58.190Z,100004.85
2019-04-04T01:58:25.439Z,100003.67
2019-04-04T02:00:52.663Z,99994.55
2019-04-04T02:03:22.467Z,100005.55
2019-04-04T02:05:49.112Z,100013.55
2019-04-04T02:08:16.341Z,100006.42
2019-04-04T02:10:46.659Z,99992.41
2019-04-04T02:13:13.947Z,100004.42
2019-04-04T02:15:42.846Z,99998.86
2019-04-04T02:18:10.342Z,100004.10
2019-04-04T02:20:37.637Z,100007.55
2019-04-04T02:23:04.893Z,100002.80
2019-04-04T02:25:34.159Z,100012.12
2019-04-04T02:28:01.306Z,100023.17
2019-04-04T02:30:28.819Z,100023.17
2019-04-04T02:32:59.316Z,100025.41
2019-04-04T02:35:25.204Z,100012.33
2019-04-04T02:37:54.883Z,100027.74
2019-04-04T02:40:21.589Z,100010.70
2019-04-04T02:42:48.920Z,100003.71
2019-04-04T02:45:16.245Z,99999.85
2019-04-04T02:47:43.495Z,99992.04
2019-04-04T02:50:11.281Z,99988.55
2019-04-04T02:52:38.525Z,99980.23
2019-04-04T02:55:05.953Z,99984.29
2019-04-04T02:57:33.214Z,99997.41
2019-04-04T03:00:00.488Z,100003.66
2019-04-04T03:02:27.708Z,100014.70
2019-04-04T03:04:54.999Z,100014.70
2019-04-04T03:07:22.264Z,100000.79
2019-04-04T03:09:49.611Z,99995.16
2019-04-04T03:12:17.085Z,99989.87
2019-04-04T03:14:44.322Z,99994.17
2019-04-04T03:17:11.569Z,99998.09
2019-04-04T03:19:40.752Z,99994.61
2019-04-04T03:22:07.982Z,99988.86
2019-04-04T03:24:38.896Z,100001.03
2019-04-04T03:27:04.471Z,99983.53
2019-04-04T03:29:31.729Z,99982.53
2019-04-04T03:31:58.995Z,99999.63
2019-04-04T03:34:26.319Z,99987.77
2019-04-04T03:36:53.601Z,99978.97
2019-04-04T03:39:20.856Z,99978.97
2019-04-04T03:41:48.091Z,99967.53
2019-04-04T03:44:19.588Z,99972.21
2019-04-04T03:46:44.577Z,99978.27
2019-04-04T03:49:11.889Z,99966.91
2019-04-04T03:51:39.153Z,99959.91
2019-04-04T03:54:11.305Z,99957.14
2019-04-04T03:56:39.429Z,99957.14
2019-04-04T03:59:06.962Z,99948.34
2019-04-04T04:01:34.261Z,99964.39
2019-04-04T04:04:01.507Z,99958.75
2019-04-04T04:06:28.757Z,99963.98
2019-04-04T04:08:56.027Z,99959.55
2019-04-04T04:11:23.268Z,99974.80
2019-04-04T04:13:50.543Z,99974.77
2019-04-04T04:16:17.785Z,99969.39
2019-04-04T04:18:45.026Z,99969.39
2019-04-04T04:21:12.297Z,99978.08
2019-04-04T04:23:39.520Z,99981.11
2019-04-04T04:26:09.355Z,99988.48
2019-04-04T04:28:35.992Z,99984.91
2019-04-04T04:31:03.237Z,99993.45
2019-04-04T04:33:30.508Z,99999.86
2019-04-04T04:35:57.778Z,100004.59
2019-04-04T04:38:26.766Z,99984.38
2019-04-04T04:40:54.146Z,99988.51
2019-04-04T04:43:21.424Z,99985.75
2019-04-04T04:45:48.655Z,99987.42
2019-04-04T04:48:15.941Z,99980.73
2019-04-04T04:50:43.267Z,99985.46
2019-04-04T04:53:10.524Z,99989.39
2019-04-04T04:55:37.754Z,99988.94
2019-04-04T04:58:05.030Z,99986.26
2019-04-04T05:00:32.309Z,99990.53
2019-04-04T05:02:59.577Z,99995.25
2019-04-04T05:05:26.803Z,99988.63
2019-04-04T05:07:55.032Z,100000.80
2019-04-04T05:10:22.499Z,99998.16
2019-04-04T05:12:52.846Z,99993.22
2019-04-04T05:15:21.227Z,100009.63
2019-04-04T05:17:48.026Z,100028.84
2019-04-04T05:20:15.255Z,100027.08
2019-04-04T05:22:42.480Z,100021.78
2019-04-04T05:25:09.942Z,100016.03
2019-04-04T05:27:37.914Z,100016.80
2019-04-04T05:30:08.147Z,100015.84
2019-04-04T05:32:34.715Z,100016.21
2019-04-04T05:35:02.157Z,100028.88
2019-04-04T05:37:29.421Z,100031.98
2019-04-04T05:39:59.767Z,100031.98
2019-04-04T05:42:27.030Z,100027.99
2019-04-04T05:44:54.276Z,100023.55
2019-04-04T05:47:23.283Z,100025.01
2019-04-04T05:49:50.764Z,100017.16
2019-04-04T05:52:18.078Z,100010.19
2019-04-04T05:54:45.381Z,100013.59
2019-04-04T05:57:12.570Z,100011.55
2019-04-04T05:59:42.186Z,100002.34
2019-04-04T06:02:11.126Z,100013.05
2019-04-04T06:04:38.099Z,100021.84
2019-04-04T06:07:05.339Z,100011.95
2019-04-04T06:09:32.601Z,99998.95
2019-04-04T06:11:59.877Z,99993.37
2019-04-04T06:14:29.688Z,100010.11
2019-04-04T06:16:56.320Z,100005.02
2019-04-04T06:19:26.082Z,100015.03
2019-04-04T06:21:53.327Z,100023.80
2019-04-04T06:24:20.566Z,100042.42
2019-04-04T06:26:47.914Z,100037.48
2019-04-04T06:29:17.373Z,100033.77
2019-04-04T06:31:44.343Z,100045.13
2019-04-04T06:34:11.613Z,100054.84
2019-04-04T06:36:38.838Z,100054.69
2019-04-04T06:39:07.385Z,100046.47
2019-04-04T06:41:34.639Z,100045.30
2019-04-04T06:44:01.843Z,100055.56
2019-04-04T06:46:29.085Z,100055.56
2019-04-04T06:48:56.375Z,100051.70
2019-04-04T06:51:23.643Z,100054.41
2019-04-04T06:53:53.320Z,100054.41
2019-04-04T06:56:20.062Z,100058.84
2019-04-04T06:58:47.351Z,100049.28
2019-04-04T07:01:14.594Z,100049.28
2019-04-04T07:03:41.858Z,100061.58
2019-04-04T07:06:10.200Z,100061.95
2019-04-04T07:08:38.193Z,100058.65
2019-04-04T07:11:15.506Z,100058.65
2019-04-04T07:13:42.090Z,100053.41
2019-04-04T07:16:07.684Z,100042.05
2019-04-04T07:18:33.372Z,100050.30
2019-04-04T07:21:03.469Z,100050.30
2019-04-04T07:23:29.794Z,100066.22
2019-04-04T07:25:57.048Z,100047.98
2019-04-04T07:28:24.298Z,100047.98
2019-04-04T07:30:54.465Z,100047.17
2019-04-04T07:33:21.474Z,100047.17
2019-04-04T07:35:49.496Z,100028.80
2019-04-04T07:38:16.872Z,100001.31
2019-04-04T07:40:44.129Z,99996.88
2019-04-04T07:43:11.395Z,99996.88
2019-04-04T07:45:38.637Z,99995.06
2019-04-04T07:48:05.901Z,100022.23
2019-04-04T07:50:33.201Z,100036.74
2019-04-04T07:53:04.051Z,100042.95
2019-04-04T07:55:29.568Z,100062.70
2019-04-04T07:57:56.873Z,100069.36
2019-04-04T08:00:24.110Z,100077.26
2019-04-04T08:02:51.356Z,100081.80
2019-04-04T08:05:18.738Z,100098.88
2019-04-04T08:07:46.035Z,100107.31
2019-04-04T08:10:20.496Z,100119.23
2019-04-04T08:12:42.969Z,100119.23
2019-04-04T08:15:10.613Z,100125.73
2019-04-04T08:17:37.851Z,100119.18
2019-04-04T08:20:05.905Z,100119.18
2019-04-04T08:22:33.174Z,100124.18
2019-04-04T08:25:00.995Z,100124.18
2019-04-04T08:27:28.396Z,100124.63
2019-04-04T08:29:55.660Z,100126.88
2019-04-04T08:32:22.957Z,100128.69
2019-04-04T08:34:50.218Z,100126.20
2019-04-04T08:37:17.496Z,100127.52
2019-04-04T08:39:44.782Z,100127.52
2019-04-04T08:42:12.044Z,100129.34
2019-04-04T08:44:39.265Z,100130.41
2019-04-04T08:47:06.508Z,100120.91
2019-04-04T08:49:33.760Z,100120.91
2019-04-04T08:52:01.071Z,100125.39
2019-04-04T08:54:28.371Z,100117.20
2019-04-04T08:56:55.681Z,100122.53
2019-04-04T08:59:22.908Z,100122.53
2019-04-04T09:01:50.153Z,100126.09
2019-04-04T09:04:17.428Z,100136.66
2019-04-04T09:06:44.694Z,100136.66
2019-04-04T09:09:11.939Z,100141.05
2019-04-04T09:11:39.231Z,100140.67
2019-04-04T09:14:06.476Z,100140.67
2019-04-04T09:16:33.719Z,100141.05
2019-04-04T09:19:00.979Z,100147.05
2019-04-04T09:21:28.223Z,100147.05
2019-04-04T09:23:55.466Z,100143.59
2019-04-04T09:26:22.694Z,100149.80
2019-04-04T09:28:49.989Z,100164.16
2019-04-04T09:31:17.298Z,100164.16
2019-04-04T09:33:44.542Z,100173.59
2019-04-04T09:36:11.849Z,100176.63
2019-04-04T09:38:39.174Z,100185.13
2019-04-04T09:41:06.515Z,100207.51
2019-04-04T09:43:33.833Z,100207.51
2019-04-04T09:46:01.131Z,100218.16
2019-04-04T09:48:28.347Z,100214.27
2019-04-04T09:50:55.660Z,100219.17
2019-04-04T09:53:22.956Z,100228.80
2019-04-04T09:55:50.202Z,100231.55
2019-04-04T09:58:17.429Z,100225.94
2019-04-04T10:00:45.968Z,100226.24
2019-04-04T10:03:13.212Z,100228.04
2019-04-04T10:05:40.509Z,100230.48
2019-04-04T10:08:07.715Z,100231.07
2019-04-04T10:10:34.968Z,100220.11
2019-04-04T10:13:02.215Z,100219.91
2019-04-04T10:15:29.465Z,100210.84
2019-04-04T10:17:56.726Z,100210.84
2019-04-04T10:20:24.116Z,100203.37
2019-04-04T10:22:51.447Z,100203.37
2019-04-04T10:25:18.702Z,100193.98
2019-04-04T10:27:45.986Z,100193.98
2019-04-04T10:30:13.609Z,100198.95
2019-04-04T10:32:40.851Z,100198.95
2019-04-04T10:35:08.323Z,100210.01
2019-04-04T10:37:35.873Z,100207.27
2019-04-04T10:40:04.258Z,100212.44
2019-04-04T10:42:31.527Z,100184.78
2019-04-04T10:44:58.819Z,100204.34
2019-04-04T10:47:26.050Z,100209.73
2019-04-04T10:49:53.320Z,100209.48
2019-04-04T10:52:20.632Z,100204.72
2019-04-04T10:54:47.898Z,100200.86
2019-04-04T10:57:15.140Z,100199.66
2019-04-04T10:59:42.506Z,100197.52
2019-04-04T11:02:09.742Z,100193.14
2019-04-04T11:04:37.108Z,100198.41
2019-04-04T11:07:04.589Z,100199.08
2019-04-04T11:09:41.303Z,100203.46
2019-04-04T11:12:01.005Z,100203.46
2019-04-04T11:14:28.302Z,100212.82
2019-04-04T11:16:55.569Z,100220.72
2019-04-04T11:19:31.077Z,100218.14
2019-04-04T11:21:52.029Z,100203.19
2019-04-04T11:24:19.388Z,100217.48
2019-04-04T11:26:46.630Z,100221.05
2019-04-04T11:29:13.843Z,100221.10
2019-04-04T11:31:41.120Z,100218.47
2019-04-04T11:34:08.483Z,100227.68
2019-04-04T11:36:35.746Z,100216.17
2019-04-04T11:39:05.531Z,100225.16
2019-04-04T11:41:32.756Z,100224.28
2019-04-04T11:44:00.050Z,100220.71
2019-04-04T11:46:27.280Z,100233.06
2019-04-04T11:48:54.523Z,100237.72
2019-04-04T11:51:21.767Z,100248.41
2019-04-04T11:53:49.020Z,100252.84
2019-04-04T11:56:16.297Z,100240.56
2019-04-04T11:58:43.636Z,100221.81
2019-04-04T12:01:11.587Z,100221.81
2019-04-04T12:03:38.883Z,100230.70
2019-04-04T12:06:06.103Z,100240.80
2019-04-04T12:08:33.352Z,100244.40
2019-04-04T12:11:00.671Z,100241.83
2019-04-04T12:16:13.270Z,100247.10
2019-04-04T12:18:40.483Z,100247.10
2019-04-04T12:21:07.698Z,100263.49
2019-04-04T12:23:34.983Z,100259.59
2019-04-04T12:26:02.234Z,100254.28
2019-04-04T12:28:29.463Z,100264.30
2019-04-04T12:30:56.755Z,100264.30
2019-04-04T12:33:24.104Z,100258.45
2019-04-04T12:35:52.596Z,100265.24
2019-04-04T12:38:19.968Z,100266.72
2019-04-04T12:40:47.212Z,100272.03
2019-04-04T12:43:14.479Z,100266.83
2019-04-04T12:45:41.753Z,100269.96
2019-04-04T12:48:10.092Z,100272.98
2019-04-04T12:50:37.423Z,100272.98
2019-04-04T12:53:04.840Z,100272.20
2019-04-04T12:55:32.297Z,100270.94
2019-04-04T12:57:59.549Z,100276.75
2019-04-04T13:00:26.822Z,100267.70
2019-04-04T13:02:54.070Z,100264.26
2019-04-04T13:05:21.385Z,100258.44
2019-04-04T13:07:48.632Z,100266.45
2019-04-04T13:10:16.256Z,100253.28
2019-04-04T13:12:43.518Z,100259.76
2019-04-04T13:15:11.396Z,100256.63
2019-04-04T13:17:38.670Z,100255.77
2019-04-04T13:20:06.941Z,100247.75
2019-04-04T13:22:34.179Z,100251.65
2019-04-04T13:25:01.451Z,100254.16
2019-04-04T13:27:28.727Z,100250.71
2019-04-04T13:29:55.998Z,100248.14
2019-04-04T13:32:23.228Z,100260.86
2019-04-04T13:34:59.119Z,100256.85
2019-04-04T13:37:19.654Z,100269.52
2019-04-04T13:39:46.896Z,100269.52
2019-04-04T13:42:14.151Z,100276.25
2019-04-04T13:44:41.464Z,100276.25
2019-04-04T13:47:08.746Z,100274.01
2019-04-04T13:49:35.963Z,100274.01
2019-04-04T13:52:03.879Z,100280.05
2019-04-04T13:54:31.155Z,100265.51
2019-04-04T13:56:58.402Z,100290.83
2019-04-04T13:59:25.708Z,100285.19
2019-04-04T14:01:52.960Z,100292.20
2019-04-04T14:04:20.611Z,100299.33
2019-04-04T14:06:49.221Z,100302.78
2019-04-04T14:09:16.452Z,100297.06
2019-04-04T14:11:43.712Z,100309.18
2019-04-04T14:14:11.067Z,100298.72
2019-04-04T14:16:38.732Z,100298.72
2019-04-04T14:19:05.949Z,100309.70
2019-04-04T14:21:33.198Z,100307.02
2019-04-04T14:24:12.400Z,100308.14
2019-04-04T14:26:31.390Z,100293.27
2019-04-04T14:28:58.787Z,100281.59
2019-04-04T14:31:26.052Z,100270.08
2019-04-04T14:33:53.291Z,100281.98
2019-04-04T14:36:20.531Z,100290.88
2019-04-04T14:38:47.808Z,100285.68
2019-04-04T14:41:15.042Z,100299.02
2019-04-04T14:43:42.319Z,100286.05
2019-04-04T14:46:09.603Z,100278.66
2019-04-04T14:48:36.855Z,100286.86
2019-04-04T14:51:04.249Z,100284.61
2019-04-04T14:53:31.498Z,100283.34
2019-04-04T14:55:58.813Z,100297.95
2019-04-04T14:58:26.035Z,100297.95
2019-04-04T15:00:53.309Z,100311.84
2019-04-04T15:03:20.562Z,100293.88
2019-04-04T15:05:47.847Z,100297.83
2019-04-04T15:08:15.105Z,100308.73
2019-04-04T15:10:42.459Z,100313.47
2019-04-04T15:13:09.788Z,100302.95
2019-04-04T15:15:38.855Z,100287.80
2019-04-04T15:18:06.111Z,100281.91
2019-04-04T15:20:33.438Z,100289.49
2019-04-04T15:23:00.713Z,100289.49
2019-04-04T15:25:28.012Z,100291.87
2019-04-04T15:27:55.291Z,100290.50
2019-04-04T15:30:22.635Z,100300.58
2019-04-04T15:32:50.015Z,100309.45
2019-04-04T15:35:17.361Z,100309.45
2019-04-04T15:37:44.586Z,100319.97
2019-04-04T15:40:12.140Z,100326.25
2019-04-04T15:42:39.399Z,100330.38
2019-04-04T15:45:07.177Z,100329.89
2019-04-04T15:47:34.419Z,100338.66
2019-04-04T15:50:06.452Z,100339.20
2019-04-04T15:52:33.754Z,100339.20
2019-04-04T15:55:01.028Z,100348.21
2019-04-04T15:57:28.309Z,100347.40
2019-04-04T15:59:55.559Z,100354.47
2019-04-04T16:02:22.790Z,100345.78
2019-04-04T16:04:50.088Z,100338.27
2019-04-04T16:07:17.417Z,100325.13
2019-04-04T16:09:44.666Z,100326.94
2019-04-04T16:12:11.925Z,100332.48
2019-04-04T16:14:39.169Z,100345.27
2019-04-04T16:17:06.426Z,100346.27
2019-04-04T16:19:33.686Z,100336.58
2019-04-04T16:22:00.981Z,100362.55
2019-04-04T16:24:28.917Z,100362.55
2019-04-04T16:26:56.401Z,100365.82
2019-04-04T16:29:23.709Z,100356.69
2019-04-04T16:31:51.077Z,100362.87
2019-04-04T16:34:18.383Z,100372.03
2019-04-04T16:36:45.726Z,100376.91
2019-04-04T16:39:13.006Z,100379.05
2019-04-04T16:41:40.245Z,100379.05
2019-04-04T16:44:07.509Z,100385.92
2019-04-04T16:46:34.769Z,100402.31
2019-04-04T16:49:02.068Z,100410.20
2019-04-04T16:51:29.381Z,100415.94
2019-04-04T16:53:56.753Z,100405.75
2019-04-04T16:56:24.226Z,100412.39
2019-04-04T16:58:51.464Z,100422.03
2019-04-04T17:01:18.736Z,100419.91
2019-04-04T17:03:46.025Z,100420.39
2019-04-04T17:06:13.259Z,100420.39
2019-04-04T17:08:40.511Z,100418.16
2019-04-04T17:11:07.765Z,100394.80
2019-04-04T17:13:34.999Z,100394.80
2019-04-04T17:16:02.254Z,100407.69
2019-04-04T17:18:29.556Z,100407.69
2019-04-04T17:20:56.776Z,100417.77
2019-04-04T17:23:24.016Z,100417.77
2019-04-04T17:25:51.267Z,100428.30
2019-04-04T17:28:18.505Z,100443.95
2019-04-04T17:30:46.144Z,100437.73
2019-04-04T17:33:13.744Z,100436.22
2019-04-04T17:35:41.048Z,100441.03
2019-04-04T17:38:08.287Z,100441.03
2019-04-04T17:40:35.599Z,100447.52
2019-04-04T17:43:03.495Z,100448.76
2019-04-04T17:45:31.200Z,100448.76
2019-04-04T17:47:58.548Z,100458.04
2019-04-04T17:50:26.784Z,100442.64
2019-04-04T17:52:54.140Z,100442.19
2019-04-04T17:55:21.803Z,100458.57
2019-04-04T17:57:49.104Z,100466.44
2019-04-04T18:00:18.848Z,100466.44
2019-04-04T18:02:46.161Z,100453.59
2019-04-04T18:05:13.711Z,100453.59
2019-04-04T18:07:40.988Z,100459.80
2019-04-04T18:10:08.571Z,100460.23
2019-04-04T18:12:40.474Z,100452.14
2019-04-04T18:15:05.215Z,100462.27
2019-04-04T18:17:33.090Z,100464.47
2019-04-04T18:20:00.374Z,100463.59
2019-04-04T18:22:27.593Z,100460.45
2019-04-04T18:24:54.849Z,100461.95
2019-04-04T18:27:22.111Z,100463.58
2019-04-04T18:29:49.329Z,100463.58
2019-04-04T18:32:16.590Z,100445.37
2019-04-04T18:34:44.027Z,100458.53
2019-04-04T18:37:11.763Z,100481.29
2019-04-04T18:39:39.149Z,100485.68
2019-04-04T18:42:06.387Z,100491.86
2019-04-04T18:44:33.960Z,100501.50
2019-04-04T18:47:01.458Z,100518.58
2019-04-04T18:49:28.707Z,100523.47
2019-04-04T18:51:55.923Z,100525.61
2019-04-04T18:54:23.235Z,100527.04
2019-04-04T18:56:50.456Z,100515.30
2019-04-04T18:59:17.669Z,100523.27
2019-04-04T19:01:45.023Z,100534.23
2019-04-04T19:04:12.286Z,100549.17
2019-04-04T19:06:39.586Z,100547.01
2019-04-04T19:09:15.213Z,100554.49
2019-04-04T19:11:39.961Z,100559.77
2019-04-04T19:14:07.227Z,100551.89
2019-04-04T19:16:34.494Z,100544.35
2019-04-04T19:19:01.744Z,100544.35
2019-04-04T19:21:28.982Z,100548.81
2019-04-04T19:23:56.228Z,100542.67
2019-04-04T19:26:24.522Z,100549.61
2019-04-04T19:28:51.767Z,100557.43
2019-04-04T19:31:19.182Z,100555.26
2019-04-04T19:33:46.581Z,100560.06
2019-04-04T19:36:13.923Z,100557.86
2019-04-04T19:38:41.158Z,100560.91
2019-04-04T19:41:08.434Z,100552.97
2019-04-04T19:43:35.693Z,100545.95
2019-04-04T19:46:02.901Z,100544.91
2019-04-04T19:48:34.192Z,100546.53
2019-04-04T19:51:01.531Z,100565.27
2019-04-04T19:53:28.808Z,100568.63
2019-04-04T19:55:56.155Z,100568.63
2019-04-04T19:58:23.379Z,100571.67
2019-04-04T20:00:50.708Z,100567.58
2019-04-04T20:03:17.936Z,100567.58
2019-04-04T20:05:45.173Z,100561.29
2019-04-04T20:08:12.438Z,100571.09
2019-04-04T20:10:42.510Z,100568.02
2019-04-04T20:13:09.737Z,100569.28
2019-04-04T20:15:37.026Z,100569.28
2019-04-04T20:18:04.359Z,100569.37
2019-04-04T20:20:31.651Z,100568.56
2019-04-04T20:22:59.142Z,100568.56
2019-04-04T20:25:26.368Z,100564.19
2019-04-04T20:27:55.094Z,100560.37
2019-04-04T20:30:35.931Z,100551.17
2019-04-04T20:33:03.267Z,100551.17
2019-04-04T20:35:30.849Z,100536.45
2019-04-04T20:37:58.131Z,100551.63
2019-04-04T20:40:25.372Z,100551.63
2019-04-04T20:42:52.613Z,100566.92
2019-04-04T20:45:19.909Z,100565.20
2019-04-04T20:47:47.128Z,100563.17
2019-04-04T20:50:14.456Z,100570.62
2019-04-04T20:52:41.704Z,100573.31
2019-04-04T20:55:08.930Z,100570.95
2019-04-04T20:57:36.151Z,100568.59
2019-04-04T21:00:04.237Z,100568.80
2019-04-04T21:02:31.443Z,100574.41
2019-04-04T21:04:58.643Z,100574.56
2019-04-04T21:07:25.922Z,100583.39
2019-04-04T21:09:53.163Z,100590.58
2019-04-04T21:12:20.413Z,100590.58
2019-04-04T21:14:47.720Z,100600.78
2019-04-04T21:17:14.914Z,100605.63
2019-04-04T21:19:42.160Z,100602.64
2019-04-04T21:22:09.448Z,100603.14
2019-04-04T21:24:36.733Z,100609.30
2019-04-04T21:27:03.979Z,100609.30
2019-04-04T21:29:31.219Z,100616.36
2019-04-04T21:31:58.444Z,100622.08
2019-04-04T21:34:25.678Z,100603.59
2019-04-04T21:36:52.920Z,100603.59
2019-04-04T21:39:20.200Z,100614.53
2019-04-04T21:41:47.458Z,100619.81
2019-04-04T21:44:14.747Z,100609.97
2019-04-04T21:46:42.002Z,100626.28
2019-04-04T21:49:09.214Z,100626.28
2019-04-04T21:51:36.456Z,100624.14
2019-04-04T21:54:03.866Z,100622.34
2019-04-04T21:56:31.156Z,100616.27
2019-04-04T21:58:58.383Z,100608.27
2019-04-04T22:01:26.041Z,100608.27
2019-04-04T22:03:53.292Z,100609.18
2019-04-04T22:06:20.544Z,100606.48
2019-04-04T22:08:47.777Z,100613.48
2019-04-04T22:11:15.069Z,100620.83
2019-04-04T22:13:42.321Z,100620.83
2019-04-04T22:16:09.565Z,100623.91
2019-04-04T22:18:36.859Z,100626.54
2019-04-04T22:21:04.137Z,100626.54
2019-04-04T22:23:31.396Z,100631.77
2019-04-04T22:25:58.688Z,100635.62
2019-04-04T22:28:25.935Z,100638.72
2019-04-04T22:30:53.194Z,100629.79
2019-04-04T22:33:20.473Z,100633.56
2019-04-04T22:35:47.760Z,100622.66
2019-04-04T22:38:15.004Z,100623.37
2019-04-04T22:40:42.322Z,100625.81
2019-04-04T22:43:09.562Z,100621.02
2019-04-04T22:45:36.802Z,100642.09
2019-04-04T22:48:04.372Z,100639.14
2019-04-04T22:50:31.631Z,100639.14
2019-04-04T22:52:58.908Z,100634.21
2019-04-04T22:55:26.692Z,100639.75
2019-04-04T22:57:54.099Z,100639.82
2019-04-04T23:00:21.455Z,100636.34
2019-04-04T23:02:48.855Z,100640.87
2019-04-04T23:05:16.153Z,100618.86
2019-04-04T23:07:43.444Z,100618.86
2019-04-04T23:10:10.701Z,100629.59
2019-04-04T23:12:38.002Z,100636.97
2019-04-04T23:15:06.611Z,100637.89
2019-04-04T23:17:33.879Z,100634.48
2019-04-04T23:20:01.189Z,100634.94
2019-04-04T23:22:28.460Z,100638.02
2019-04-04T23:24:55.712Z,100639.83
2019-04-04T23:27:23.033Z,100646.39
2019-04-04T23:29:50.288Z,100653.38
2019-04-04T23:32:17.558Z,100645.90
2019-04-04T23:34:44.892Z,100645.90
2019-04-04T23:37:12.156Z,100644.91
2019-04-04T23:39:39.401Z,100644.91
2019-04-04T23:42:06.682Z,100654.73
2019-04-04T23:44:33.918Z,100652.59
2019-04-04T23:47:01.165Z,100649.08
2019-04-04T23:49:28.459Z,100645.54
2019-04-04T23:51:55.734Z,100646.81
2019-04-04T23:54:23.031Z,100643.66
2019-04-04T23:56:50.344Z,100647.32
2019-04-04T23:59:17.588Z,100643.16
